Time;durP1;ratioP1;P1;durP2;ratioP2;P2;SDS_P1;SDS_P2;PMS_P1;PMS_P2;Temp;Humidity;BMP_temperature;BMP_pressure;BME280_temperature;BME280_humidity;BME280_pressure;Samples;Min_cycle;Max_cycle;Signal;HPM_P1;HPM_P2
2022/08/30 00:03:08;;;;;;;2.87;2.67;;;16.30;99.90;;;;;;5060496;28;20755;-72
2022/08/30 00:05:34;;;;;;;4.47;3.10;;;16.30;99.90;;;;;;5049997;28;20183;-72
2022/08/30 00:08:00;;;;;;;2.93;2.73;;;16.30;99.90;;;;;;5055799;28;20683;-70
2022/08/30 00:10:27;;;;;;;2.83;2.63;;;16.30;99.90;;;;;;5068706;28;20728;-69
2022/08/30 00:12:53;;;;;;;3.87;3.00;;;16.30;99.90;;;;;;5047340;28;20256;-69
2022/08/30 00:15:19;;;;;;;2.87;2.67;;;16.30;99.90;;;;;;5068861;28;20232;-68
2022/08/30 00:17:45;;;;;;;3.10;2.90;;;16.30;99.90;;;;;;5047481;28;20207;-66
2022/08/30 00:20:14;;;;;;;3.33;3.13;;;16.30;99.90;;;;;;5068727;28;20641;-69
2022/08/30 00:22:40;;;;;;;4.03;3.20;;;16.20;99.90;;;;;;5047551;28;20205;-69
2022/08/30 00:25:06;;;;;;;3.30;3.10;;;16.20;99.90;;;;;;5068940;28;20186;-70
2022/08/30 00:27:32;;;;;;;3.30;3.00;;;16.20;99.90;;;;;;5048391;28;20272;-69
2022/08/30 00:29:58;;;;;;;3.80;3.50;;;16.20;99.90;;;;;;5049480;28;20183;-69
2022/08/30 00:32:23;;;;;;;4.07;3.77;;;16.30;99.90;;;;;;5065665;28;20624;-68
2022/08/30 00:34:51;;;;;;;3.80;3.50;;;16.30;99.90;;;;;;5069069;28;20174;-69
2022/08/30 00:37:17;;;;;;;3.67;3.30;;;16.30;99.90;;;;;;5066984;28;20209;-69
2022/08/30 00:39:42;;;;;;;3.30;3.10;;;16.30;99.90;;;;;;5069055;28;20187;-69
2022/08/30 00:42:09;;;;;;;3.27;2.97;;;16.30;99.90;;;;;;5066915;28;20544;-69
2022/08/30 00:44:35;;;;;;;3.53;3.23;;;16.30;99.90;;;;;;5069272;28;20170;-69
2022/08/30 00:47:00;;;;;;;3.80;3.50;;;16.30;99.90;;;;;;5067043;28;20199;-70
2022/08/30 00:49:28;;;;;;;4.20;3.80;;;16.30;99.90;;;;;;5068687;28;20270;-70
2022/08/30 00:51:54;;;;;;;3.70;3.40;;;16.20;99.90;;;;;;5067246;28;20179;-70
2022/08/30 00:54:20;;;;;;;3.37;3.17;;;16.20;99.90;;;;;;5069233;28;20175;-70
2022/08/30 00:56:47;;;;;;;3.43;3.23;;;16.20;99.90;;;;;;5068795;28;20201;-71
2022/08/30 00:59:13;;;;;;;3.60;3.30;;;16.20;99.90;;;;;;5049432;28;20660;-71
2022/08/30 01:01:39;;;;;;;3.77;3.47;;;16.10;99.90;;;;;;5068049;28;20213;-71
2022/08/30 01:04:07;;;;;;;3.40;3.10;;;16.10;99.90;;;;;;5066119;28;20220;-70
2022/08/30 01:06:33;;;;;;;4.60;4.20;;;16.10;99.90;;;;;;5049233;28;20190;-71
2022/08/30 01:09:00;;;;;;;4.03;3.30;;;16.00;99.90;;;;;;5048330;28;20206;-71
2022/08/30 01:11:26;;;;;;;3.77;3.50;;;16.00;99.90;;;;;;5067574;28;20255;-71
2022/08/30 01:13:53;;;;;;;4.07;3.77;;;16.00;99.90;;;;;;5063734;28;20202;-71
2022/08/30 01:16:20;;;;;;;4.27;3.97;;;16.00;99.90;;;;;;5063106;28;20237;-70
2022/08/30 01:18:46;;;;;;;5.87;4.17;;;16.00;99.90;;;;;;5046554;28;20202;-71
2022/08/30 01:21:29;;;;;;;4.13;3.83;;;16.00;99.90;;;;;;5067726;28;20198;-71
2022/08/30 01:23:57;;;;;;;8.87;4.03;;;16.10;99.90;;;;;;5063963;28;20248;-68
2022/08/30 01:26:25;;;;;;;4.23;3.93;;;16.10;99.90;;;;;;5068875;28;20186;-79
2022/08/30 01:28:54;;;;;;;3.97;3.60;;;16.00;99.90;;;;;;5064361;28;20190;-69
2022/08/30 01:31:20;;;;;;;5.17;3.80;;;16.10;99.90;;;;;;5068380;28;20232;-68
2022/08/30 01:33:45;;;;;;;4.10;3.80;;;16.00;99.90;;;;;;5062141;28;20215;-69
2022/08/30 01:36:13;;;;;;;4.50;4.10;;;16.00;99.90;;;;;;5068144;28;20198;-69
2022/08/30 01:39:05;;;;;;;5.00;4.50;;;16.00;99.90;;;;;;5060738;28;20202;-69
2022/08/30 01:41:34;;;;;;;4.33;3.93;;;16.00;99.90;;;;;;5047245;28;20716;-69
2022/08/30 01:44:01;;;;;;;4.80;4.40;;;15.90;99.90;;;;;;5065534;28;20198;-69
2022/08/30 01:46:34;;;;;;;4.47;4.07;;;15.90;99.90;;;;;;5048333;28;20188;-69
2022/08/30 01:49:02;;;;;;;4.13;3.73;;;16.00;99.90;;;;;;5062596;28;20233;-68
2022/08/30 01:51:28;;;;;;;4.03;3.70;;;15.90;99.90;;;;;;5067761;28;20183;-69
2022/08/30 01:53:54;;;;;;;5.23;4.73;;;15.80;99.90;;;;;;5062105;28;20206;-70
2022/08/30 01:56:20;;;;;;;8.10;5.00;;;15.80;99.90;;;;;;5067955;28;20267;-69
2022/08/30 01:58:46;;;;;;;4.43;4.03;;;15.70;99.90;;;;;;5061020;28;20205;-69
2022/08/30 02:01:16;;;;;;;7.50;4.97;;;15.70;99.90;;;;;;5067771;28;20313;-69
2022/08/30 02:03:43;;;;;;;5.00;4.57;;;15.70;99.90;;;;;;5059986;28;20190;-70
2022/08/30 02:06:12;;;;;;;6.07;5.13;;;15.60;99.90;;;;;;5067809;28;20185;-69
2022/08/30 02:08:39;;;;;;;6.27;5.67;;;15.60;99.90;;;;;;5059106;28;20198;-69
2022/08/30 02:11:05;;;;;;;5.17;4.67;;;15.60;99.90;;;;;;5067054;28;20190;-69
2022/08/30 02:13:31;;;;;;;6.17;5.43;;;15.60;99.90;;;;;;5058499;28;20194;-70
2022/08/30 02:15:58;;;;;;;5.37;4.87;;;15.50;99.90;;;;;;5065573;28;20878;-70
2022/08/30 02:18:24;;;;;;;5.77;5.10;;;15.50;99.90;;;;;;5046132;28;20241;-70
2022/08/30 02:20:50;;;;;;;6.03;5.43;;;15.50;99.90;;;;;;5067007;28;20563;-70
2022/08/30 02:23:16;;;;;;;5.73;5.33;;;15.50;99.90;;;;;;5046263;28;20194;-71
2022/08/30 02:25:42;;;;;;;6.27;5.67;;;15.50;99.90;;;;;;5066766;28;20190;-70
2022/08/30 02:28:09;;;;;;;5.17;4.67;;;15.50;99.90;;;;;;5045471;28;20230;-69
2022/08/30 02:30:34;;;;;;;5.93;5.33;;;15.50;99.90;;;;;;5066739;28;20217;-69
2022/08/30 02:33:00;;;;;;;6.20;5.50;;;15.40;99.90;;;;;;5045964;28;20230;-70
2022/08/30 02:35:26;;;;;;;6.17;5.67;;;15.30;99.90;;;;;;5047533;28;20183;-69
2022/08/30 02:37:52;;;;;;;6.20;5.70;;;15.30;99.90;;;;;;5064877;28;20190;-69
2022/08/30 02:40:20;;;;;;;6.10;5.60;;;15.20;99.90;;;;;;5067437;28;20849;-69
2022/08/30 02:42:46;;;;;;;7.10;6.37;;;15.20;99.90;;;;;;5065407;28;20196;-67
2022/08/30 02:45:12;;;;;;;6.37;5.87;;;15.20;99.90;;;;;;5067749;28;20175;-68
2022/08/30 02:47:37;;;;;;;5.97;5.30;;;15.10;99.90;;;;;;5065337;28;20871;-76
2022/08/30 02:50:04;;;;;;;6.20;5.60;;;15.10;99.90;;;;;;5067330;28;20217;-70
2022/08/30 02:52:30;;;;;;;5.83;5.33;;;15.10;99.90;;;;;;5046015;28;20620;-73
2022/08/30 02:54:56;;;;;;;7.20;5.87;;;15.10;99.90;;;;;;5052721;28;20177;-72
2022/08/30 02:57:21;;;;;;;7.27;6.63;;;15.10;99.90;;;;;;5068202;28;20281;-73
2022/08/30 02:59:48;;;;;;;6.23;5.63;;;15.00;99.90;;;;;;5071196;28;20201;-71
2022/08/30 03:02:14;;;;;;;6.30;5.80;;;15.00;99.90;;;;;;5069516;28;20214;-71
2022/08/30 03:04:42;;;;;;;7.00;6.50;;;15.00;99.90;;;;;;5051264;28;20186;-71
2022/08/30 03:07:07;;;;;;;6.80;6.20;;;15.00;99.90;;;;;;5070284;28;20194;-71
2022/08/30 03:09:34;;;;;;;6.77;6.13;;;14.90;99.90;;;;;;5068914;28;20881;-71
2022/08/30 03:12:00;;;;;;;7.23;6.53;;;15.00;99.90;;;;;;5051114;28;20598;-71
2022/08/30 03:14:26;;;;;;;6.87;6.33;;;14.90;99.90;;;;;;5050406;28;20754;-71
2022/08/30 03:16:53;;;;;;;6.97;6.37;;;14.90;99.90;;;;;;5060588;28;20198;-66
2022/08/30 03:19:18;;;;;;;7.63;6.83;;;14.90;99.90;;;;;;5051356;28;20217;-66
2022/08/30 03:21:44;;;;;;;7.37;6.77;;;14.90;99.90;;;;;;5069943;28;20287;-66
2022/08/30 03:24:09;;;;;;;7.50;6.73;;;14.90;99.90;;;;;;5065022;28;20638;-67
2022/08/30 03:26:35;;;;;;;7.67;7.00;;;14.90;99.90;;;;;;5070458;28;20595;-66
2022/08/30 03:29:01;;;;;;;6.83;6.23;;;14.90;99.90;;;;;;5063408;28;20251;-67
2022/08/30 03:31:26;;;;;;;7.67;6.90;;;14.90;99.90;;;;;;5070381;28;20285;-67
2022/08/30 03:33:52;;;;;;;7.67;6.97;;;15.00;99.90;;;;;;5062005;28;20210;-67
2022/08/30 03:36:18;;;;;;;8.27;6.53;;;15.00;99.90;;;;;;5070346;28;20208;-66
2022/08/30 03:38:44;;;;;;;8.40;6.77;;;15.00;99.90;;;;;;5060594;28;20213;-67
2022/08/30 03:41:10;;;;;;;7.13;6.27;;;15.00;99.90;;;;;;5069916;28;20209;-67
2022/08/30 03:43:36;;;;;;;9.37;7.67;;;15.00;99.90;;;;;;5049079;28;20861;-66
2022/08/30 03:46:02;;;;;;;7.83;7.13;;;15.00;99.90;;;;;;5069529;28;20202;-66
2022/08/30 03:48:28;;;;;;;10.50;7.40;;;15.00;99.90;;;;;;5048861;28;20198;-67
2022/08/30 03:50:54;;;;;;;7.97;7.27;;;15.00;99.90;;;;;;5069172;28;20226;-67
2022/08/30 03:53:20;;;;;;;7.60;6.63;;;15.00;99.90;;;;;;5048825;28;20198;-67
2022/08/30 03:55:45;;;;;;;7.20;6.60;;;15.00;99.90;;;;;;5069154;28;20202;-66
2022/08/30 03:58:10;;;;;;;7.73;6.97;;;15.00;99.90;;;;;;5048653;28;20187;-66
2022/08/30 04:00:36;;;;;;;7.03;6.40;;;15.00;99.90;;;;;;5049903;28;20207;-66
2022/08/30 04:03:02;;;;;;;6.90;6.40;;;15.00;99.90;;;;;;5067069;28;20201;-66
2022/08/30 04:05:28;;;;;;;10.07;6.80;;;15.00;99.90;;;;;;5069821;28;20284;-66
2022/08/30 04:07:54;;;;;;;6.73;6.13;;;15.00;99.90;;;;;;5067504;28;20202;-68
2022/08/30 04:10:20;;;;;;;7.40;6.63;;;15.00;99.90;;;;;;5069746;28;20677;-68
2022/08/30 04:12:46;;;;;;;6.10;5.60;;;15.00;99.90;;;;;;5067582;28;20745;-68
2022/08/30 04:15:12;;;;;;;6.30;5.57;;;14.90;99.90;;;;;;5068391;28;20636;-68
2022/08/30 04:17:38;;;;;;;6.43;5.83;;;15.00;99.90;;;;;;5067476;28;20192;-67
2022/08/30 04:20:04;;;;;;;7.03;6.27;;;14.90;99.90;;;;;;5069379;28;20182;-67
2022/08/30 04:22:30;;;;;;;6.33;5.83;;;14.90;99.90;;;;;;5068695;28;20191;-66
2022/08/30 04:24:55;;;;;;;7.90;6.47;;;14.90;99.90;;;;;;5054983;28;20186;-68
2022/08/30 04:27:21;;;;;;;6.70;6.00;;;14.80;99.90;;;;;;5069289;28;20178;-66
2022/08/30 04:29:46;;;;;;;7.03;6.37;;;14.80;99.90;;;;;;5066724;28;20202;-67
2022/08/30 04:32:13;;;;;;;6.93;6.23;;;14.80;99.90;;;;;;5049658;28;20559;-67
2022/08/30 04:34:38;;;;;;;7.47;6.53;;;14.80;99.90;;;;;;5049509;28;20665;-67
2022/08/30 04:37:03;;;;;;;5.37;4.97;;;14.80;99.90;;;;;;5068413;28;20252;-67
2022/08/30 04:39:29;;;;;;;7.67;6.97;;;14.70;99.90;;;;;;5063905;28;20560;-67
2022/08/30 04:41:56;;;;;;;7.13;6.53;;;14.70;99.90;;;;;;5068951;28;20691;-67
2022/08/30 04:44:21;;;;;;;7.90;6.30;;;14.80;99.90;;;;;;5062294;28;20683;-67
2022/08/30 04:46:47;;;;;;;8.40;6.33;;;14.70;99.90;;;;;;5068575;28;20221;-67
2022/08/30 04:49:12;;;;;;;6.53;5.93;;;14.80;99.90;;;;;;5060562;28;20211;-67
2022/08/30 04:51:38;;;;;;;6.50;5.90;;;14.80;99.90;;;;;;5069063;28;20656;-67
2022/08/30 04:54:03;;;;;;;6.63;5.70;;;14.80;99.90;;;;;;5059599;28;20688;-67
2022/08/30 04:56:29;;;;;;;6.43;5.93;;;14.80;99.90;;;;;;5067412;28;20800;-67
2022/08/30 04:58:55;;;;;;;6.33;5.87;;;14.80;99.90;;;;;;5047510;28;20295;-69
2022/08/30 05:01:28;;;;;;;7.73;6.03;;;14.80;99.90;;;;;;5067756;28;20202;-69
2022/08/30 05:03:55;;;;;;;6.17;5.57;;;14.80;99.90;;;;;;5057120;28;20612;-69
2022/08/30 05:06:23;;;;;;;6.33;5.80;;;14.80;99.90;;;;;;5068493;28;20273;-75
2022/08/30 05:08:49;;;;;;;5.80;5.37;;;14.90;99.90;;;;;;5052164;28;20255;-72
2022/08/30 05:11:15;;;;;;;5.33;4.90;;;14.90;99.90;;;;;;5067504;28;20929;-72
2022/08/30 05:13:42;;;;;;;5.80;5.30;;;14.90;99.90;;;;;;5047211;28;20207;-73
2022/08/30 05:16:08;;;;;;;5.80;5.30;;;14.90;99.90;;;;;;5067709;28;20224;-73
2022/08/30 05:18:35;;;;;;;6.50;6.00;;;14.90;99.90;;;;;;5046564;28;20276;-72
2022/08/30 05:21:10;;;;;;;6.30;5.27;;;15.00;99.90;;;;;;5048519;28;20222;-73
2022/08/30 05:23:36;;;;;;;10.83;8.13;;;15.00;99.90;;;;;;5065783;28;20205;-72
2022/08/30 05:26:07;;;;;;;8.93;6.50;;;15.10;99.90;;;;;;5067783;28;20661;-72
2022/08/30 05:28:33;;;;;;;7.63;6.63;;;15.10;99.90;;;;;;5046829;28;20309;-73
2022/08/30 05:30:59;;;;;;;5.93;5.43;;;15.20;99.90;;;;;;5048277;28;20252;-73
2022/08/30 05:33:24;;;;;;;6.83;5.50;;;15.30;99.90;;;;;;5065178;28;20214;-73
2022/08/30 05:35:50;;;;;;;6.20;5.70;;;15.40;99.90;;;;;;5068306;28;20178;-74
2022/08/30 05:38:15;;;;;;;7.53;5.27;;;15.40;99.90;;;;;;5064964;28;20635;-73
2022/08/30 05:40:42;;;;;;;5.97;5.33;;;15.50;99.90;;;;;;5067974;28;20194;-73
2022/08/30 05:43:10;;;;;;;6.73;5.97;;;15.60;99.90;;;;;;5065598;28;20201;-73
2022/08/30 05:45:36;;;;;;;6.87;6.27;;;15.70;99.90;;;;;;5068298;28;20179;-73
2022/08/30 05:48:01;;;;;;;6.17;5.67;;;15.80;99.90;;;;;;5065901;28;20193;-73
2022/08/30 05:50:27;;;;;;;5.50;5.00;;;15.80;99.90;;;;;;5068038;28;20305;-73
2022/08/30 05:52:52;;;;;;;6.37;5.87;;;15.90;99.90;;;;;;5046951;28;20187;-72
2022/08/30 05:55:18;;;;;;;6.30;5.77;;;16.00;99.90;;;;;;5047911;28;20175;-73
2022/08/30 05:57:43;;;;;;;5.80;5.30;;;16.10;99.90;;;;;;5067290;28;20193;-73
2022/08/30 06:00:13;;;;;;;7.07;5.70;;;16.10;99.90;;;;;;5065941;28;20190;-74
2022/08/30 06:02:40;;;;;;;6.67;5.43;;;16.10;99.90;;;;;;5067844;28;20717;-73
2022/08/30 06:05:06;;;;;;;6.03;5.53;;;16.20;99.90;;;;;;5064836;28;20623;-73
2022/08/30 06:07:32;;;;;;;9.13;6.33;;;16.30;99.90;;;;;;5067745;28;20680;-72
2022/08/30 06:09:57;;;;;;;8.57;5.60;;;16.30;99.90;;;;;;5064046;28;20194;-72
2022/08/30 06:12:23;;;;;;;6.43;5.80;;;16.40;99.90;;;;;;5067550;28;20186;-72
2022/08/30 06:14:48;;;;;;;7.60;6.77;;;16.50;99.90;;;;;;5062570;28;20712;-72
2022/08/30 06:17:14;;;;;;;6.33;5.77;;;16.50;99.90;;;;;;5067680;28;20224;-72
2022/08/30 06:19:39;;;;;;;7.03;6.33;;;16.60;99.90;;;;;;5061288;28;20197;-72
2022/08/30 06:22:05;;;;;;;6.60;5.83;;;16.60;99.90;;;;;;5067349;28;20746;-73
2022/08/30 06:24:30;;;;;;;7.17;5.67;;;16.70;99.90;;;;;;5059202;28;20190;-72
2022/08/30 06:26:56;;;;;;;6.83;6.13;;;16.60;99.90;;;;;;5067765;28;20713;-72
2022/08/30 06:29:22;;;;;;;7.23;6.53;;;16.70;99.90;;;;;;5058436;28;20240;-73
2022/08/30 06:31:47;;;;;;;7.57;6.97;;;16.80;99.90;;;;;;5071439;28;20217;-72
2022/08/30 06:34:14;;;;;;;7.43;6.73;;;16.90;99.90;;;;;;5050082;28;20203;-73
2022/08/30 06:36:39;;;;;;;5.57;5.10;;;16.90;99.90;;;;;;5071142;28;20423;-73
2022/08/30 06:39:06;;;;;;;6.93;6.37;;;17.00;99.90;;;;;;5050028;28;20287;-73
2022/08/30 06:41:34;;;;;;;7.27;6.67;;;17.00;99.90;;;;;;5070503;28;20228;-73
2022/08/30 06:44:02;;;;;;;7.60;6.83;;;17.00;99.90;;;;;;5049762;28;20199;-72
2022/08/30 06:46:31;;;;;;;7.90;6.77;;;17.10;99.90;;;;;;5070857;28;20187;-69
2022/08/30 06:48:57;;;;;;;8.03;7.23;;;17.20;99.90;;;;;;5049465;28;20334;-68
2022/08/30 06:51:29;;;;;;;8.50;7.70;;;17.30;99.90;;;;;;5051389;28;20554;-73
2022/08/30 06:53:55;;;;;;;9.27;8.43;;;17.40;99.90;;;;;;5057219;28;20577;-71
2022/08/30 06:56:21;;;;;;;7.70;7.03;;;17.40;99.90;;;;;;5070976;28;20170;-70
2022/08/30 06:58:47;;;;;;;8.07;7.37;;;17.50;99.90;;;;;;5049474;28;20214;-72
2022/08/30 07:01:26;;;;;;;7.90;7.23;;;17.50;99.90;;;;;;5049826;28;20206;-71
2022/08/30 07:03:53;;;;;;;6.73;6.13;;;17.60;99.90;;;;;;5056134;28;20200;-71
2022/08/30 07:06:19;;;;;;;7.73;6.93;;;17.60;99.90;;;;;;5071144;28;20175;-70
2022/08/30 07:08:45;;;;;;;8.63;6.90;;;17.70;99.90;;;;;;5049585;28;20298;-70
2022/08/30 07:11:11;;;;;;;12.33;7.53;;;17.70;99.90;;;;;;5051193;28;20261;-70
2022/08/30 07:13:37;;;;;;;7.57;6.87;;;17.80;99.90;;;;;;5067817;28;20221;-73
2022/08/30 07:16:10;;;;;;;9.33;7.03;;;17.90;99.90;;;;;;5071175;28;20171;-71
2022/08/30 07:18:53;;;;;;;8.60;7.63;;;18.00;99.90;;;;;;5069167;28;20282;-72
2022/08/30 07:21:47;;;;;;;8.33;7.53;;;18.20;99.90;;;;;;5071234;28;20229;-72
2022/08/30 07:24:13;;;;;;;7.50;6.70;;;18.30;99.90;;;;;;5057106;28;20704;-72
2022/08/30 07:26:48;;;;;;;7.20;6.40;;;18.30;99.90;;;;;;5050625;28;20168;-71
2022/08/30 07:29:15;;;;;;;7.90;7.10;;;18.40;99.90;;;;;;5058126;28;20226;-77
2022/08/30 07:31:41;;;;;;;9.37;7.67;;;18.50;99.90;;;;;;5051045;28;20212;-72
2022/08/30 07:34:08;;;;;;;9.37;8.30;;;18.60;99.90;;;;;;5067794;28;20688;-72
2022/08/30 07:36:38;;;;;;;10.23;8.07;;;18.70;99.90;;;;;;5051229;28;20196;-71
2022/08/30 07:39:05;;;;;;;10.17;9.17;;;18.70;99.90;;;;;;5056160;28;20514;-69
2022/08/30 07:41:37;;;;;;;9.23;8.23;;;18.70;99.90;;;;;;5050088;28;20330;-75
2022/08/30 07:44:04;;;;;;;9.10;8.20;;;18.80;99.90;;;;;;5056064;28;20735;-71
2022/08/30 07:46:30;;;;;;;10.80;9.77;;;19.10;99.90;;;;;;5070349;28;20576;-67
2022/08/30 07:49:04;;;;;;;10.27;9.27;;;19.50;99.90;;;;;;5048633;28;20189;-67
2022/08/30 07:51:31;;;;;;;9.40;8.17;;;19.90;99.90;;;;;;5050433;28;20615;-67
2022/08/30 07:53:57;;;;;;;9.40;8.50;;;20.10;99.90;;;;;;5067660;28;20200;-67
2022/08/30 07:56:22;;;;;;;9.17;8.37;;;20.20;99.90;;;;;;5069845;28;20271;-64
2022/08/30 07:58:48;;;;;;;9.17;7.93;;;20.30;99.90;;;;;;5067930;28;20191;-66
2022/08/30 08:01:15;;;;;;;8.97;8.17;;;20.10;99.90;;;;;;5070157;28;20206;-64
2022/08/30 08:03:42;;;;;;;10.53;9.43;;;20.00;99.90;;;;;;5067933;28;20218;-69
2022/08/30 08:06:10;;;;;;;9.83;8.83;;;19.90;99.90;;;;;;5069860;28;20315;-69
2022/08/30 08:08:37;;;;;;;8.43;7.63;;;19.80;99.90;;;;;;5067759;28;20226;-68
2022/08/30 08:11:13;;;;;;;8.53;7.77;;;19.60;99.90;;;;;;5069354;28;20179;-67
2022/08/30 08:13:39;;;;;;;8.13;7.53;;;19.50;99.90;;;;;;5057829;28;20558;-67
2022/08/30 08:16:05;;;;;;;7.60;7.00;;;19.40;99.90;;;;;;5059680;28;20672;-67
2022/08/30 08:18:30;;;;;;;7.40;6.77;;;19.40;99.90;;;;;;5057441;28;20189;-68
2022/08/30 08:20:56;;;;;;;6.70;6.20;;;19.40;99.90;;;;;;5060432;28;20968;-67
2022/08/30 08:23:22;;;;;;;6.60;6.00;;;19.50;99.90;;;;;;5066649;28;20187;-68
2022/08/30 08:25:47;;;;;;;5.87;5.47;;;19.50;99.90;;;;;;5069345;28;20633;-68
2022/08/30 08:28:13;;;;;;;6.83;5.83;;;19.70;99.90;;;;;;5066394;28;20554;-69
2022/08/30 08:30:39;;;;;;;5.50;5.10;;;19.80;99.90;;;;;;5067823;28;20228;-67
2022/08/30 08:33:05;;;;;;;5.17;4.87;;;19.90;99.90;;;;;;5052180;28;20367;-68
2022/08/30 08:35:31;;;;;;;5.80;5.40;;;20.10;99.90;;;;;;5062251;28;20663;-77
2022/08/30 08:37:56;;;;;;;5.20;4.80;;;20.20;99.90;;;;;;5049788;28;20276;-73
2022/08/30 08:40:22;;;;;;;4.57;4.17;;;20.30;99.90;;;;;;5049525;28;20699;-68
2022/08/30 08:43:09;;;;;;;4.10;3.80;;;20.30;99.90;;;;;;5068085;28;20193;-67
2022/08/30 08:45:46;;;;;;;3.87;3.57;;;20.30;99.90;;;;;;5065513;28;20249;-70
2022/08/30 08:48:33;;;;;;;2.70;2.53;;;20.40;99.90;;;;;;5048693;28;20189;-67
2022/08/30 08:53:50;;;;;;;2.87;2.67;;;20.90;99.90;;;;;;5048257;28;21060;-67
2022/08/30 08:56:18;;;;;;;3.73;3.43;;;21.30;99.90;;;;;;5068206;28;20218;-67
2022/08/30 08:58:56;;;;;;;3.73;3.43;;;21.50;99.90;;;;;;5046751;28;20624;-67
2022/08/30 09:01:25;;;;;;;3.87;3.57;;;21.60;99.90;;;;;;5048098;28;20197;-68
2022/08/30 09:03:51;;;;;;;4.80;3.60;;;21.40;99.90;;;;;;5065809;28;20200;-67
2022/08/30 09:06:42;;;;;;;4.07;3.77;;;21.20;99.90;;;;;;5067974;28;20175;-76
2022/08/30 09:09:07;;;;;;;2.67;2.47;;;21.00;99.90;;;;;;5060219;28;20251;-71
2022/08/30 09:11:34;;;;;;;2.27;2.17;;;20.80;99.90;;;;;;5067510;28;20568;-66
2022/08/30 09:14:00;;;;;;;2.03;1.93;;;20.60;99.90;;;;;;5062656;28;20227;-67
2022/08/30 09:16:49;;;;;;;1.93;1.80;;;20.60;99.90;;;;;;5067510;28;20229;-66
2022/08/30 09:19:32;;;;;;;2.30;1.50;;;20.50;99.90;;;;;;5054869;28;20735;-67
2022/08/30 09:22:10;;;;;;;2.77;1.80;;;20.50;99.90;;;;;;5067694;28;20208;-67
2022/08/30 09:24:38;;;;;;;2.20;1.57;;;20.70;99.90;;;;;;5054984;28;20679;-67
2022/08/30 09:27:50;;;;;;;2.10;1.30;;;20.80;99.90;;;;;;5050516;28;20178;-67
2022/08/30 09:30:25;;;;;;;2.03;1.03;;;21.00;99.90;;;;;;5058695;28;20196;-68
2022/08/30 09:33:04;;;;;;;1.10;1.00;;;21.00;99.90;;;;;;5047976;28;20253;-67
2022/08/30 09:35:35;;;;;;;1.20;1.10;;;20.90;99.90;;;;;;5062098;28;20206;-75
2022/08/30 09:38:16;;;;;;;1.17;1.07;;;20.90;99.90;;;;;;5067719;28;20189;-69
2022/08/30 09:40:45;;;;;;;1.83;0.97;;;20.90;99.90;;;;;;5063732;28;20234;-67
2022/08/30 09:43:21;;;;;;;1.00;1.00;;;20.90;99.90;;;;;;5067874;28;20203;-67
2022/08/30 09:45:57;;;;;;;2.77;1.23;;;20.80;99.90;;;;;;5064395;28;20221;-69
2022/08/30 09:48:25;;;;;;;1.20;1.20;;;20.80;99.90;;;;;;5047857;28;20188;-67
2022/08/30 09:51:10;;;;;;;1.13;1.03;;;21.00;99.90;;;;;;5063932;28;20252;-68
2022/08/30 09:53:50;;;;;;;1.00;1.00;;;21.00;99.90;;;;;;5055222;28;20185;-68
2022/08/30 09:56:42;;;;;;;0.60;0.53;;;21.10;99.90;;;;;;5047756;28;20690;-67
2022/08/30 09:59:34;;;;;;;0.83;0.80;;;21.40;99.90;;;;;;5049864;28;20204;-68
2022/08/30 10:02:24;;;;;;;1.60;1.00;;;21.50;99.90;;;;;;5058043;28;20248;-67
2022/08/30 10:05:15;;;;;;;0.80;0.80;;;21.50;99.90;;;;;;5058169;28;20200;-67
2022/08/30 10:08:02;;;;;;;1.00;1.00;;;21.60;99.90;;;;;;5054160;28;20205;-69
2022/08/30 10:10:58;;;;;;;1.47;1.37;;;21.60;99.90;;;;;;5067172;28;20237;-68
2022/08/30 10:13:48;;;;;;;0.63;0.63;;;21.70;99.90;;;;;;5052547;28;20185;-67
2022/08/30 10:16:30;;;;;;;1.10;1.10;;;21.70;99.90;;;;;;5054267;28;20208;-67
2022/08/30 10:19:08;;;;;;;1.53;0.80;;;21.80;99.90;;;;;;5054396;28;20177;-67
2022/08/30 10:21:42;;;;;;;0.80;0.80;;;22.10;99.90;;;;;;5072552;28;20216;-67
2022/08/30 10:24:12;;;;;;;0.80;0.70;;;22.30;99.90;;;;;;5055734;28;20292;-67
2022/08/30 10:26:56;;;;;;;1.10;1.00;;;22.50;99.90;;;;;;5073806;28;20196;-67
2022/08/30 10:29:32;;;;;;;1.03;0.97;;;22.60;99.90;;;;;;5057171;28;20694;-67
2022/08/30 10:32:11;;;;;;;2.17;1.10;;;22.80;99.90;;;;;;5074049;28;20234;-68
2022/08/30 10:34:40;;;;;;;1.50;1.40;;;22.90;99.90;;;;;;5059403;28;20205;-67
2022/08/30 10:37:16;;;;;;;1.00;0.97;;;22.90;99.90;;;;;;5073695;28;20639;-70
2022/08/30 10:39:46;;;;;;;1.50;0.90;;;23.00;99.90;;;;;;5059302;28;20288;-67
2022/08/30 10:42:19;;;;;;;1.73;1.10;;;23.10;99.90;;;;;;5071268;28;20223;-67
2022/08/30 10:44:51;;;;;;;1.00;1.00;;;23.20;99.90;;;;;;5065310;28;20204;-67
2022/08/30 10:47:31;;;;;;;1.20;1.20;;;23.40;99.90;;;;;;5065089;28;20170;-68
2022/08/30 10:50:10;;;;;;;1.13;0.90;;;23.40;99.90;;;;;;5064818;28;20584;-66
2022/08/30 10:52:58;;;;;;;2.20;1.30;;;23.70;99.90;;;;;;5065633;28;20676;-66
2022/08/30 10:55:47;;;;;;;3.40;0.83;;;23.90;99.90;;;;;;5068293;28;20198;-68
2022/08/30 10:58:15;;;;;;;0.90;0.87;;;24.20;99.90;;;;;;5053935;28;20607;-67
2022/08/30 11:01:01;;;;;;;1.13;0.53;;;24.30;99.90;;;;;;5056036;28;20660;-67
2022/08/30 11:03:56;;;;;;;0.80;0.70;;;24.30;99.90;;;;;;5053849;28;20183;-67
2022/08/30 11:06:41;;;;;;;0.70;0.60;;;24.10;99.30;;;;;;5053727;28;20205;-68
2022/08/30 11:09:16;;;;;;;0.60;0.60;;;24.30;99.80;;;;;;5051685;28;20726;-69
2022/08/30 11:12:10;;;;;;;1.17;0.60;;;24.30;99.30;;;;;;5064169;28;21070;-67
2022/08/30 11:14:43;;;;;;;2.10;0.73;;;24.50;98.80;;;;;;5062776;28;20225;-67
2022/08/30 11:17:29;;;;;;;1.38;1.00;;;24.50;98.60;;;;;;5050482;28;20241;-68
2022/08/30 11:19:59;;;;;;;0.98;0.98;;;24.50;99.70;;;;;;5064462;28;20201;-72
2022/08/30 11:22:29;;;;;;;4.70;1.05;;;24.70;99.80;;;;;;5060569;28;20225;-67
2022/08/30 11:24:59;;;;;;;6.53;1.10;;;24.90;99.10;;;;;;5060706;28;20190;-67
2022/08/30 11:27:47;;;;;;;1.00;0.90;;;25.00;99.30;;;;;;5058514;28;20224;-68
2022/08/30 11:30:24;;;;;;;1.10;1.10;;;25.10;97.80;;;;;;5060700;28;20232;-67
2022/08/30 11:33:24;;;;;;;2.37;1.33;;;25.10;99.30;;;;;;5060830;28;20199;-76
2022/08/30 11:35:51;;;;;;;1.23;0.88;;;25.30;99.00;;;;;;5059705;28;20798;-66
2022/08/30 11:38:25;;;;;;;2.70;1.33;;;25.60;98.20;;;;;;5060894;28;20423;-65
2022/08/30 11:40:54;;;;;;;2.88;1.08;;;25.70;96.80;;;;;;5059909;28;20206;-65
2022/08/30 11:43:34;;;;;;;1.55;1.20;;;25.90;97.80;;;;;;5060901;28;20215;-65
2022/08/30 11:46:14;;;;;;;3.45;1.80;;;25.80;96.70;;;;;;5058372;28;20255;-66
2022/08/30 11:48:53;;;;;;;2.15;1.17;;;25.90;95.40;;;;;;5059701;28;20278;-65
2022/08/30 11:51:44;;;;;;;3.35;1.00;;;25.90;94.70;;;;;;5056449;28;20234;-78
2022/08/30 11:54:30;;;;;;;2.15;1.65;;;25.80;93.90;;;;;;5059784;28;20188;-64
2022/08/30 11:57:07;;;;;;;6.47;2.00;;;25.90;95.20;;;;;;5059453;28;20172;-64
2022/08/30 11:59:48;;;;;;;32.00;4.60;;;26.30;93.90;;;;;;5059941;28;20675;-65
2022/08/30 12:02:45;;;;;;;3.40;1.30;;;26.60;93.10;;;;;;5064805;28;20712;-65
2022/08/30 12:05:37;;;;;;;1.40;1.10;;;27.10;92.10;;;;;;5067557;28;20201;-65
2022/08/30 12:08:26;;;;;;;4.20;2.88;;;27.40;91.10;;;;;;5049716;28;20195;-65
2022/08/30 12:11:00;;;;;;;1.05;0.95;;;27.40;90.70;;;;;;5052979;28;20209;-64
2022/08/30 12:13:35;;;;;;;2.15;1.00;;;27.30;90.10;;;;;;5049218;28;20213;-64
2022/08/30 12:16:07;;;;;;;5.40;1.60;;;27.30;90.60;;;;;;5063515;28;20215;-65
2022/08/30 12:18:58;;;;;;;5.07;1.70;;;27.20;90.80;;;;;;5049514;28;20186;-65
2022/08/30 12:21:31;;;;;;;1.48;1.38;;;27.00;90.90;;;;;;5066103;28;20803;-65
2022/08/30 12:24:21;;;;;;;4.00;1.55;;;26.80;92.00;;;;;;5069178;28;20189;-65
2022/08/30 12:26:50;;;;;;;1.33;1.23;;;26.70;91.70;;;;;;5048693;28;20190;-65
2022/08/30 12:29:23;;;;;;;3.17;1.40;;;26.60;92.30;;;;;;5046895;28;20197;-66
2022/08/30 12:32:08;;;;;;;6.47;1.80;;;26.40;91.80;;;;;;5056898;28;20190;-64
2022/08/30 12:34:53;;;;;;;1.20;0.82;;;26.00;93.20;;;;;;5057756;28;20193;-65
2022/08/30 12:37:22;;;;;;;3.20;1.25;;;26.20;93.50;;;;;;5059394;28;20172;-70
2022/08/30 12:39:49;;;;;;;1.25;1.15;;;26.20;93.00;;;;;;5059301;28;20206;-64
2022/08/30 12:42:19;;;;;;;2.85;1.80;;;26.40;92.50;;;;;;5058189;28;20220;-64
2022/08/30 12:44:47;;;;;;;1.23;0.98;;;26.70;92.50;;;;;;5057895;28;20203;-65
2022/08/30 12:47:16;;;;;;;1.20;0.98;;;26.90;92.00;;;;;;5065500;28;20186;-65
2022/08/30 12:49:45;;;;;;;2.85;1.52;;;27.00;91.40;;;;;;5049248;28;20243;-65
2022/08/30 12:52:24;;;;;;;2.15;1.58;;;26.70;90.60;;;;;;5049757;28;20176;-65
2022/08/30 12:54:52;;;;;;;7.10;2.25;;;26.30;90.30;;;;;;5051880;28;20256;-64
2022/08/30 12:57:37;;;;;;;2.10;1.23;;;26.20;90.90;;;;;;5068680;28;20179;-65
2022/08/30 13:00:09;;;;;;;1.85;1.10;;;26.20;90.80;;;;;;5047046;28;20202;-64
2022/08/30 13:02:49;;;;;;;1.90;0.98;;;25.70;91.10;;;;;;5053507;28;20206;-65
2022/08/30 13:05:42;;;;;;;3.22;1.17;;;25.90;90.50;;;;;;5056844;28;20203;-66
2022/08/30 13:08:14;;;;;;;10.07;2.10;;;26.30;90.80;;;;;;5058993;28;20739;-66